Latest Weather Observations for Tasman Island

IDT60801

Issued at 4:31 am EST Monday 3 August 2015 (issued every 30 minutes, with the page automatically refreshed every 10 minutes)

About weather observations | Map of weather stations | Latest weather observations for TAS | Other Formats
Station Details ID: 094155 Name: TASMAN ISLAND Lat: -43.24 Lon: 148.00 Height: 240.0 m
Data from the previous 72 hours. | See also: Recent months at Tasman Island
Date/Time
EST
Temp
°C
App
Temp
°C
Dew
Point
Rel
Hum
%
Delta-T
°C
Wind Press
QNH
hPa
Press
MSL
hPa
Rain
since 9 am
mm
Dir
 
Spd
km/h
Gust
km/h
Spd
kts
Gust
kts
03/04:30am 0.7 -7.3 0.1 96 0.2 WNW 32 46 17 25 993.8 994.0 2.6
03/04:00am 0.4 -3.7 -0.5 94 0.3 ESE 11 33 6 18 993.5 993.7 2.4
03/03:30am 2.2 -1.9 -0.1 85 0.9 W 11 41 6 22 993.2 993.4 2.0
03/03:00am 1.8 -2.7 -0.4 85 0.8 W 13 32 7 17 992.8 993.0 2.0
03/02:30am 1.8 -2.3 -0.1 87 0.7 WNW 11 41 6 22 992.9 993.1 2.0
03/02:00am 2.5 -2.6 1.0 90 0.6 NW 17 44 9 24 992.7 992.8 2.0
03/01:32am 2.7 -4.6 0.1 83 1.0 WNW 28 61 15 33 992.8 993.0 2.0
03/01:30am 2.7 -3.8 0.3 84 0.9 WNW 24 50 13 27 992.8 993.0 2.0
03/01:13am 2.9 -6.2 -0.7 77 1.3 WNW 37 70 20 38 992.0 992.2 2.0
03/01:00am 2.5 -4.8 -0.3 82 1.1 WNW 28 48 15 26 992.1 992.3 2.0
03/12:31am 2.4 -8.4 -0.2 83 1.0 WNW 46 65 25 35 991.5 991.7 2.0
03/12:30am 2.3 -8.8 -0.1 84 0.9 WNW 48 65 26 35 991.5 991.7 2.0
03/12:00am 2.5 -8.2 -0.1 83 1.0 WNW 46 74 25 40 991.7 991.9 2.0
 
Date/Time
EST
Temp
°C
App
Temp
°C
Dew
Point
Rel
Hum
%
Delta-T
°C
Wind Press
QNH
hPa
Press
MSL
hPa
Rain
since 9 am
mm
Dir
 
Spd
km/h
Gust
km/h
Spd
kts
Gust
kts
02/11:30pm 2.3 -7.0 0.5 88 0.7 NW 39 57 21 31 992.8 993.0 2.0
02/11:24pm 2.2 -6.3 0.6 89 0.6 WNW 35 54 19 29 992.8 993.0 2.0
02/11:00pm 1.9 -6.3 0.6 91 0.5 NW 33 46 18 25 992.9 993.1 2.0
02/10:30pm 2.1 -8.5 0.6 90 0.6 NW 46 78 25 42 993.2 993.4 1.6
02/10:00pm 3.5 -6.5 -1.3 71 1.8 NW 41 61 22 33 993.5 993.7 1.2
02/09:33pm 3.6 -5.6 -1.3 70 1.8 NW 37 56 20 30 993.5 993.7 1.2
02/09:30pm 3.6 -6.4 -1.5 69 1.9 NW 41 56 22 30 993.5 993.7 1.2
02/09:00pm 3.6 -4.8 -1.3 70 1.8 NW 33 54 18 29 993.8 994.0 1.2
02/08:30pm 3.9 -6.5 -1.9 66 2.1 WNW 43 65 23 35 994.2 994.4 1.2
02/08:00pm 4.0 -6.9 -1.6 67 2.1 NW 46 69 25 37 994.0 994.2 1.2
02/07:30pm 3.8 -5.8 -1.5 68 1.9 WNW 39 70 21 38 993.8 994.0 1.2
02/07:00pm 3.4 -6.9 -1.0 73 1.6 WNW 43 63 23 34 994.2 994.4 1.2
02/06:30pm 2.8 -4.9 0.0 82 1.1 WNW 30 63 16 34 994.1 994.3 1.2
02/06:15pm 2.5 -6.5 0.1 84 0.9 NW 37 65 20 35 994.4 994.6 1.2
02/06:00pm 3.8 -2.9 -0.8 72 1.7 WNW 24 61 13 33 994.5 994.7 1.2
02/05:30pm 4.1 -5.7 -0.3 73 1.7 NW 41 61 22 33 994.0 994.2 1.2
02/05:00pm 3.9 -4.9 -1.1 70 1.9 NW 35 59 19 32 993.5 993.7 1.2
02/04:48pm 4.3 -2.3 -0.5 71 1.8 WNW 24 48 13 26 993.3 993.5 1.2
02/04:30pm 4.5 -0.1 -1.3 66 2.2 WNW 13 41 7 22 993.1 993.3 1.2
02/04:00pm 4.5 -0.4 -0.5 70 1.9 NW 15 50 8 27 992.9 993.1 1.2
02/03:30pm 4.9 0.1 0.5 73 1.7 WNW 15 48 8 26 992.3 992.5 1.2
02/03:00pm 4.5 -1.0 0.5 75 1.6 NW 19 54 10 29 992.5 992.7 1.2
02/02:30pm 4.9 -0.5 1.2 77 1.5 NW 19 57 10 31 992.9 993.1 1.2
02/02:00pm 5.1 -0.3 2.6 84 1.0 NW 20 59 11 32 991.8 992.0 1.2
02/01:49pm 5.2 0.5 3.2 87 0.8 WNW 17 54 9 29 991.6 991.8 1.2
02/01:30pm 5.1 0.9 3.6 90 0.6 WSW 15 46 8 25 992.1 992.3 1.2
02/01:04pm 7.0 -1.9 3.3 77 1.6 NW 39 83 21 45 991.3 991.5 0.0
02/01:00pm 8.6 -1.3 2.6 66 2.6 WNW 44 83 24 45 991.1 991.3 0.0
02/12:54pm 9.1 0.1 2.2 62 2.9 NW 39 80 21 43 991.2 991.4 0.0
02/12:53pm 9.2 0.1 2.1 61 3.0 NW 39 82 21 44 990.9 991.1 0.0
02/12:52pm 9.7 1.0 1.8 58 3.3 NW 37 82 20 44 991.2 991.4 0.0
02/12:40pm 11.0 0.5 1.3 51 4.1 NW 46 80 25 43 991.5 991.7 0.0
02/12:34pm 11.0 2.2 1.5 52 4.0 NW 37 57 20 31 991.8 992.0 0.0
02/12:30pm 10.8 2.0 1.4 52 4.0 WNW 37 56 20 30 992.0 992.2 0.0
02/12:00pm 10.8 1.6 1.4 52 4.0 NW 39 61 21 33 992.4 992.6 0.0
02/11:30am 10.3 -0.2 1.2 53 3.8 NW 46 70 25 38 993.1 993.3 0.0
02/11:02am 9.6 -0.4 0.8 54 3.6 NW 43 96 23 52 993.5 993.7 0.0
02/11:00am 9.7 0.1 1.1 55 3.6 NW 41 65 22 35 993.4 993.6 0.0
02/10:44am 9.2 -2.1 0.9 56 3.4 NW 50 82 27 44 993.5 993.7 0.0
02/10:30am 8.9 -5.3 0.6 56 3.4 NW 65 96 35 52 993.4 993.6 0.0
02/10:00am 8.7 -6.0 0.4 56 3.4 NW 67 95 36 51 993.3 993.5 0.0
02/09:30am 8.0 -5.5 0.5 59 3.0 NW 61 95 33 51 994.0 994.2 0.0
02/09:00am 7.7 -4.9 0.2 59 3.0 NW 56 83 30 45 995.1 995.3 0.0
02/08:30am 7.4 -2.9 0.2 60 2.9 NW 44 67 24 36 996.1 996.3 0.0
02/08:28am 7.4 -2.9 0.4 61 2.8 NW 44 72 24 39 996.2 996.5 0.0
02/08:27am 7.4 -3.3 0.4 61 2.8 NW 46 72 25 39 996.3 996.6 0.0
02/08:00am 7.3 -5.5 -0.2 59 3.0 NW 57 83 31 45 996.1 996.3 0.0
02/07:30am 6.8 -3.4 -0.2 61 2.7 NW 43 82 23 44 997.2 997.4 0.0
02/07:25am 6.8 -3.6 -0.2 61 2.7 NW 44 82 24 44 997.3 997.5 0.0
02/07:00am 6.3 -2.0 -0.4 62 2.6 NW 33 57 18 31 998.0 998.2 0.0
02/06:30am 6.1 -1.6 -0.2 64 2.5 NW 30 69 16 37 998.6 998.8 0.0
02/06:00am 6.2 -1.9 -0.3 63 2.5 NW 32 52 17 28 999.1 999.3 0.0
02/05:30am 6.1 -4.6 0.0 65 2.4 NNW 46 65 25 35 999.1 999.3 0.0
02/05:01am 6.0 -4.1 0.1 66 2.3 NNW 43 61 23 33 999.3 999.5 0.0
02/05:00am 6.0 -4.3 0.3 67 2.3 NNW 44 61 24 33 999.4 999.6 0.0
02/04:30am 6.0 -3.4 -0.1 65 2.4 NNW 39 57 21 31 999.9 1000.2 0.0
02/04:01am 5.9 -2.4 -0.4 64 2.4 NNW 33 54 18 29 1000.8 1001.1 0.0
02/04:00am 6.1 -2.6 -0.4 63 2.5 NNW 35 54 19 29 1000.7 1001.0 0.0
02/03:40am 5.8 -2.9 -0.3 65 2.4 NW 35 54 19 29 1001.0 1001.3 0.0
02/03:30am 6.0 -4.2 -0.3 64 2.4 NW 43 57 23 31 1001.0 1001.3 0.0
02/03:00am 5.9 -3.6 -0.4 64 2.5 NW 39 54 21 29 1001.6 1001.8 0.0
02/02:30am 6.0 -3.8 -0.5 63 2.5 NW 41 59 22 32 1002.0 1002.2 0.0
02/02:28am 6.0 -3.5 -0.5 63 2.5 NW 39 59 21 32 1002.0 1002.2 0.0
02/02:00am 5.7 -3.4 -0.6 64 2.4 NNW 37 54 20 29 1002.4 1002.6 0.0
02/01:30am 5.7 -3.8 -0.8 63 2.5 NNW 39 57 21 31 1002.7 1002.9 0.0
02/01:00am 5.4 -4.1 -0.6 65 2.3 NNW 39 65 21 35 1003.0 1003.2 0.0
02/12:30am 5.4 -3.3 -0.6 65 2.3 NNW 35 56 19 30 1003.4 1003.7 0.0
02/12:27am 5.3 -3.0 -0.3 67 2.2 NNW 33 52 18 28 1003.4 1003.7 0.0
02/12:00am 5.2 -2.9 -0.6 66 2.2 NNW 32 48 17 26 1003.8 1004.1 0.0
 
Date/Time
EST
Temp
°C
App
Temp
°C
Dew
Point
Rel
Hum
%
Delta-T
°C
Wind Press
QNH
hPa
Press
MSL
hPa
Rain
since 9 am
mm
Dir
 
Spd
km/h
Gust
km/h
Spd
kts
Gust
kts
01/11:30pm 5.4 -4.1 -0.4 66 2.2 NNW 39 57 21 31 1004.0 1004.3 0.0
01/11:19pm 5.3 -4.5 -0.5 66 2.2 NNW 41 61 22 33 1003.9 1004.2 0.0
01/11:00pm 5.3 -3.8 -0.5 66 2.2 NW 37 54 20 29 1004.4 1004.7 0.0
01/10:30pm 5.7 -4.2 -1.2 61 2.6 NW 41 61 22 33 1004.2 1004.5 0.0
01/10:00pm 5.9 -5.4 -1.3 60 2.7 NW 48 67 26 36 1004.2 1004.5 0.0
01/09:32pm 5.6 -3.2 -1.5 60 2.7 NW 35 54 19 29 1004.7 1005.0 0.0
01/09:30pm 5.7 -3.5 -1.4 60 2.7 NW 37 50 20 27 1004.7 1005.0 0.0
01/09:00pm 5.6 -4.8 -1.8 59 2.8 NW 43 63 23 34 1004.6 1004.9 0.0
01/08:58pm 5.5 -4.9 -1.9 59 2.7 NW 43 63 23 34 1004.6 1004.9 0.0
01/08:30pm 5.5 -4.9 -1.6 60 2.6 NW 43 61 23 33 1004.9 1005.2 0.0
01/08:20pm 5.5 -4.1 -1.6 60 2.6 NW 39 61 21 33 1005.1 1005.4 0.0
01/08:00pm 5.3 -3.2 -1.6 61 2.6 NW 33 48 18 26 1005.1 1005.4 0.0
01/07:30pm 5.7 -2.7 -1.4 60 2.7 NW 33 50 18 27 1004.9 1005.2 0.0
01/07:00pm 6.2 -1.2 -0.5 62 2.6 WNW 28 56 15 30 1004.7 1005.0 0.0
01/06:38pm 5.8 -2.0 -1.1 61 2.6 WNW 30 50 16 27 1004.7 1005.0 0.0
01/06:30pm 5.7 -1.7 -0.8 63 2.5 NW 28 44 15 24 1004.8 1005.1 0.0
01/06:16pm 5.8 -2.0 -0.9 62 2.6 NW 30 48 16 26 1004.8 1005.1 0.0
01/06:00pm 6.3 -2.7 -0.2 63 2.5 NW 37 50 20 27 1004.5 1004.8 0.0
01/05:30pm 6.2 0.0 -0.5 62 2.6 NW 22 44 12 24 1004.1 1004.4 0.0
01/05:00pm 6.7 1.1 0.2 63 2.6 NW 19 43 10 23 1003.4 1003.7 0.0
01/04:30pm 6.6 3.0 0.9 67 2.3 WNW 9 30 5 16 1003.0 1003.2 0.0
01/04:00pm 6.9 3.3 0.4 63 2.6 WSW 9 35 5 19 1002.4 1002.6 0.0
01/03:30pm 6.6 1.0 -0.1 62 2.6 WNW 19 57 10 31 1002.3 1002.5 0.0
01/03:00pm 6.9 1.1 -0.3 60 2.8 NW 20 50 11 27 1001.8 1002.0 0.0
01/02:30pm 6.7 1.1 -0.3 61 2.7 WNW 19 54 10 29 1001.1 1001.4 0.0
01/02:00pm 6.7 -1.0 -0.3 61 2.8 NW 30 57 16 31 1000.8 1001.1 0.0
01/01:53pm 6.9 -0.5 -0.5 59 2.9 NW 28 69 15 37 1000.9 1001.2 0.0
01/01:30pm 7.1 0.8 -1.3 55 3.2 NW 22 63 12 34 1000.8 1001.1 0.0
01/01:27pm 6.9 0.9 -1.5 55 3.2 WNW 20 63 11 34 1001.1 1001.4 0.0
01/01:00pm 7.4 2.5 -0.8 56 3.2 W 15 41 8 22 1000.9 1001.2 0.0
01/12:30pm 7.0 2.8 -1.2 56 3.1 W 11 39 6 21 1000.6 1000.9 0.0
01/12:00pm 6.8 2.2 -0.9 58 3.0 NNW 13 41 7 22 1000.7 1001.0 0.0
01/11:30am 6.5 2.3 -1.2 58 2.9 SE 11 48 6 26 1000.4 1000.7 0.0
01/11:00am 6.3 1.5 0.0 64 2.5 WSW 15 50 8 27 1000.3 1000.6 0.0
01/10:30am 5.9 0.8 0.5 68 2.1 WNW 17 46 9 25 1000.1 1000.4 0.0
01/10:00am 5.8 1.8 0.8 70 2.0 WSW 11 35 6 19 999.9 1000.2 0.0
01/09:30am 5.8 1.4 0.6 69 2.1 W 13 39 7 21 999.4 999.7 0.0
01/09:00am 5.6 1.0 1.3 74 1.7 WNW 15 41 8 22 998.7 999.0 0.4
01/08:30am 5.3 1.1 1.8 78 1.4 NNW 13 35 7 19 998.4 998.6 0.4
01/08:00am 5.7 2.0 2.5 80 1.3 E 11 32 6 17 998.0 998.2 0.4
01/07:30am 6.6 3.0 2.7 76 1.6 W 11 48 6 26 996.9 997.2 0.2
01/07:00am 6.4 -1.0 3.9 84 1.1 NW 32 50 17 27 996.5 996.8 0.2
01/06:30am 7.3 -1.9 3.4 76 1.7 NW 41 69 22 37 995.9 996.2 0.2
01/06:00am 7.4 -3.5 3.6 77 1.7 NW 50 78 27 42 995.4 995.7 0.2
01/05:30am 8.0 -2.3 2.9 70 2.2 NW 46 76 25 41 995.5 995.8 0.0
01/05:00am 8.2 -2.2 2.2 66 2.6 NW 46 65 25 35 994.8 995.0 0.0
01/04:30am 8.4 -2.0 2.0 64 2.7 NNW 46 80 25 43 994.3 994.5 0.0
01/04:27am 8.4 -1.6 2.0 64 2.7 NNW 44 80 24 43 994.5 994.7 0.0
01/04:00am 8.3 -0.8 2.1 65 2.6 NNW 39 61 21 33 995.1 995.3 0.0
01/03:30am 8.2 -1.7 1.8 64 2.7 NNW 43 70 23 38 995.5 995.8 0.0
01/03:00am 8.1 -0.7 1.3 62 2.8 NNW 37 63 20 34 996.6 996.9 0.0
01/02:30am 7.9 -0.1 1.5 64 2.6 NNW 33 65 18 35 997.7 997.9 0.0
01/02:00am 7.7 -1.3 2.6 70 2.2 N 39 67 21 36 998.9 999.2 0.0
01/01:30am 7.8 -2.0 3.1 72 2.0 N 44 67 24 36 999.4 999.7 0.0
01/01:00am 7.7 -0.8 3.2 73 1.9 N 37 57 20 31 999.6 999.9 0.0
01/12:57am 7.7 -0.4 3.0 72 2.0 NNE 35 56 19 30 999.5 999.8 0.0
01/12:30am 7.7 0.0 3.2 73 1.9 N 33 57 18 31 1001.6 1001.8 0.0
01/12:00am 7.5 0.3 2.8 72 2.0 NNE 30 54 16 29 1002.8 1003.1 0.0
 
Date/Time
EST
Temp
°C
App
Temp
°C
Dew
Point
Rel
Hum
%
Delta-T
°C
Wind Press
QNH
hPa
Press
MSL
hPa
Rain
since 9 am
mm
Dir
 
Spd
km/h
Gust
km/h
Spd
kts
Gust
kts
31/11:30pm 7.4 0.1 2.7 72 2.0 N 30 56 16 30 1003.3 1003.6 0.0
31/11:00pm 7.2 0.0 2.9 74 1.8 N 30 50 16 27 1003.5 1003.8 0.0
31/10:30pm 7.3 -1.3 2.4 71 2.1 N 37 56 20 30 1004.1 1004.4 0.0
31/10:15pm 7.3 0.0 2.4 71 2.1 N 30 48 16 26 1004.7 1005.0 0.0
31/10:00pm 7.3 -0.3 2.8 73 1.9 N 32 48 17 26 1005.0 1005.3 0.0
31/09:30pm 7.1 -1.2 2.4 72 2.0 N 35 48 19 26 1005.8 1006.1 0.0
31/09:02pm 7.2 -0.5 2.3 71 2.1 N 32 52 17 28 1006.5 1006.8 0.0
31/09:00pm 7.3 -1.0 2.2 70 2.1 N 35 52 19 28 1006.6 1006.9 0.0
31/08:30pm 7.2 -0.5 2.1 70 2.1 N 32 44 17 24 1006.9 1007.2 0.0
31/08:00pm 7.0 -1.3 1.9 70 2.1 N 35 46 19 25 1007.2 1007.5 0.0
31/07:30pm 6.9 0.6 1.6 69 2.2 N 24 41 13 22 1007.8 1008.1 0.0
31/07:22pm 7.3 0.1 1.0 64 2.6 NNW 28 48 15 26 1007.8 1008.1 0.0
31/07:00pm 7.1 0.4 1.2 66 2.4 NNW 26 39 14 21 1008.2 1008.5 0.0
31/06:30pm 7.3 0.6 1.4 66 2.4 N 26 39 14 21 1008.3 1008.6 0.0
31/06:00pm 7.2 1.3 1.7 68 2.3 N 22 30 12 16 1008.3 1008.6 0.0
31/05:30pm 7.2 1.8 1.5 67 2.3 N 19 24 10 13 1008.4 1008.7 0.0
31/05:00pm 7.6 2.1 0.6 61 2.8 N 19 28 10 15 1008.8 1009.1 0.0
31/04:30pm 8.1 3.7 0.1 57 3.2 N 13 20 7 11 1009.1 1009.5 0.0
31/04:00pm 8.3 4.6 0.1 56 3.3 NNW 9 17 5 9 1009.5 1009.9 0.0
31/03:30pm 8.8 3.7 0.5 56 3.4 NNW 17 28 9 15 1009.8 1010.2 0.0
31/03:00pm 9.0 3.4 1.2 58 3.2 NNW 20 28 11 15 1010.2 1010.5 0.0
31/02:30pm 8.7 2.6 0.7 57 3.3 NNW 22 35 12 19 1010.2 1010.5 0.0
31/02:00pm 8.6 2.1 0.6 57 3.3 NNW 24 43 13 23 1010.7 1011.0 0.0
31/01:30pm 8.8 2.4 0.8 57 3.3 NNW 24 39 13 21 1011.0 1011.3 0.0
31/01:00pm 7.7 1.7 0.9 62 2.8 NNW 22 32 12 17 1011.4 1011.7 0.0
31/12:30pm 7.8 0.9 0.3 59 3.0 NNW 26 37 14 20 1011.8 1012.1 0.0
31/12:00pm 8.3 2.6 0.8 59 3.1 NNW 20 30 11 16 1012.1 1012.4 0.0
31/11:30am 8.2 3.1 0.7 59 3.1 NNW 17 28 9 15 1012.5 1012.8 0.0
31/11:00am 7.5 -0.1 0.3 60 2.9 NW 30 39 16 21 1012.4 1012.7 0.0
31/10:30am 6.9 0.0 -0.1 61 2.8 NW 26 37 14 20 1012.5 1012.8 0.0
31/10:00am 6.8 -0.5 -0.2 61 2.7 NW 28 41 15 22 1012.3 1012.6 0.0
31/09:30am 6.4 -0.8 0.5 66 2.3 NW 28 46 15 25 1012.2 1012.5 0.0
31/09:20am 6.2 -1.1 0.1 65 2.4 NW 28 46 15 25 1012.1 1012.4 0.0
31/09:00am 6.0 1.2 -0.1 65 2.4 WNW 15 37 8 20 1012.1 1012.4 -
31/08:30am 5.7 1.2 -0.4 65 2.4 WNW 13 33 7 18 1012.0 1012.3 -
31/08:00am 5.5 2.1 -0.8 64 2.4 W 7 26 4 14 1011.4 1011.7 -
31/07:30am 5.0 -2.1 -1.0 65 2.3 WNW 26 48 14 26 1011.2 1011.5 -
31/07:00am 5.0 -0.2 -0.2 69 2.0 WNW 17 41 9 22 1010.8 1011.1 -
31/06:30am 5.0 -0.2 -0.2 69 2.0 WNW 17 32 9 17 1010.5 1010.8 -
31/06:00am 4.8 -0.5 -0.6 68 2.1 WNW 17 39 9 21 1010.1 1010.4 -
31/05:30am 4.7 -1.1 0.1 72 1.8 WNW 20 43 11 23 1009.9 1010.3 -
31/05:00am 4.7 0.6 0.1 72 1.8 NW 11 32 6 17 1009.4 1009.8 -

Other Formats:

Comma delimited format used in spreadsheet applications
http://www.bom.gov.au/fwo/IDT60801/IDT60801.95986.axf

JavaScript Object Notation format (JSON) in row-major order
http://www.bom.gov.au/fwo/IDT60801/IDT60801.95986.json